Список аэропортов
Фактическая погода:

24 мая, 16:00
Температура: +20°C (+19.9*)
Ветер: западный 6 м/с
Давление: *761 мм
Без существ. явл.
Время (МСК)Темп. СВетерВлажностьДавлениеОблачностьОсадки
15:00+22З, 5 м/с26%1015 гПаясно
16:00+22ЮЗ, 5 м/с27%1015 гПаясно
17:00+21ЮЗ, 5 м/с28%1015 гПаясно
18:00+20ЮЗ, 4 м/с29%1015 гПаясно
19:00+19ЮЗ, 3 м/с36%1015 гПаясно
20:00+17Ю, 2 м/с48%1016 гПаясно
21:00+15ЮЗ, 3 м/с54%1016 гПаясно
22:00+14ЮЗ, 3 м/с55%1016 гПаясно
23:00+14ЮЗ, 3 м/с55%1016 гПаясно
25 мая
00:00+13ЮЗ, 3 м/с55%1016 гПаясно
01:00+13ЮЗ, 3 м/с55%1017 гПаясно
02:00+12ЮЗ, 3 м/с56%1017 гПамалооблачно
03:00+12ЮЗ, 3 м/с58%1017 гПамалооблачно
04:00+11ЮЗ, 3 м/с60%1017 гПамалооблачно
05:00+12ЮЗ, 2 м/с59%1017 гПас прояснениями
06:00+14ЮЗ, 2 м/с58%1017 гПас прояснениями
07:00+18ЮЗ, 2 м/с50%1017 гПас прояснениями
08:00+21ЮЗ, 3 м/с38%1017 гПамалооблачно
09:00+23ЮЗ, 4 м/с32%1017 гПаясно
10:00+24ЮЗ, 5 м/с30%1017 гПаясно
11:00+25ЮЗ, 5 м/с26%1017 гПаясно
12:00+25Ю, 5 м/с25%1017 гПаясно
13:00+26ЮЗ, 5 м/с24%1017 гПаясно
14:00+26ЮЗ, 5 м/с24%1016 гПаясно
15:00+26ЮЗ, 5 м/с24%1016 гПаясно
16:00+25ЮЗ, 5 м/с25%1015 гПаясно
17:00+25ЮЗ, 4 м/с26%1015 гПаясно
18:00+24ЮЗ, 4 м/с28%1015 гПаясно
19:00+22Ю, 2 м/с38%1015 гПаясно
20:00+19Ю, 2 м/с52%1015 гПаясно
21:00+17Ю, 2 м/с58%1015 гПаясно
22:00+16Ю, 2 м/с62%1016 гПаясно
23:00+15Ю, 2 м/с66%1015 гПаясно
26 мая
00:00+14ЮЗ, 3 м/с67%1015 гПамалооблачно
01:00+14ЮЗ, 3 м/с65%1015 гПамалооблачно
02:00+13Ю, 3 м/с68%1015 гПас прояснениями
03:00+12Ю, 2 м/с74%1015 гПаоблачно
04:00+11Ю, 2 м/с78%1015 гПаоблачно
05:00+12Ю, 2 м/с76%1015 гПас прояснениями
06:00+16Ю, 2 м/с58%1014 гПаоблачно
07:00+19Ю, 3 м/с43%1014 гПас прояснениями
08:00+22Ю, 3 м/с33%1014 гПамалооблачно
09:00+23Ю, 5 м/с27%1013 гПас прояснениями
10:00+24Ю, 5 м/с24%1013 гПаоблачно
11:00+24Ю, 5 м/с22%1013 гПаоблачно
12:00+25Ю, 5 м/с21%1012 гПаоблачно
13:00+26Ю, 5 м/с20%1011 гПаоблачно
14:00+26Ю, 5 м/с19%1010 гПас прояснениями
15:00+26Ю, 5 м/с19%1010 гПаоблачно